Flight Track Log - Related Links

Times and Time Zones

All times are in EDT time to prevent confusion due to time zone crossing. See the JTL905 flight status page for this flight to view local times or setup timezone preferences in your user account.

Time Position Orientation Groundspeed Altitude Reporting Facility
EDT Latitude Longitude Course Direction KTS MPH feet Rate Location/Type
Sat 08:08:10 PM 39.2900 -106.9350 142° Southeast 188 216 12,400  Level Denver Center
Sat 08:09:11 PM 39.3381 -106.9458 350° North 222 255 15,600 2,537 Climbing Denver Center
Sat 08:10:13 PM 39.3383 -106.8550 90° East 256 295 17,600 1,659 Climbing Denver Center
Sat 08:11:14 PM 39.3431 -106.7483 87° East 294 338 19,000 683 Climbing Denver Center
Sat 08:12:00 PM 39.3740 -106.5785 105° East  Level FlightAware Approximate
Sat 08:12:16 PM 39.3469 -106.6144 88° East 365 420 19,000  Level Denver Center
Sat 08:13:00 PM 39.3490 -106.4657 142° Southeast  Level FlightAware Approximate
Sat 08:13:17 PM 39.3503 -106.4814 88° East 372 428 19,000  Level Denver Center
Sat 08:14:19 PM 39.3078 -106.3556 114° Southeast 383 441 19,000  Level Denver Center
Sat 08:15:20 PM 39.2625 -106.2247 114° Southeast 397 457 19,000  Level Denver Center
Sat 08:16:22 PM 39.2106 -106.0783 115° Southeast 384 442 19,000  Level Denver Center
Sat 08:17:23 PM 39.1667 -105.9547 115° Southeast 380 437 19,000  Level Denver Center
Sat 08:18:25 PM 39.1142 -105.8442 121° Southeast 371 427 19,000  Level Denver Center
Sat 08:19:26 PM 39.0386 -105.7375 132° Southeast 362 417 19,000 -390 Level Denver Center
Sat 08:20:28 PM 39.0681 -105.6128 73° East 381 438 18,200 -927 Descending Denver Center
Sat 08:21:29 PM 39.1097 -105.4717 69° East 378 435 17,100 -976 Descending Denver Center
Sat 08:22:31 PM 39.1428 -105.3558 70° East 355 409 16,200 -878 Descending Denver Center
Sat 08:23:32 PM 39.1764 -105.2425 69° East 345 397 15,300 -1,220 Descending Denver Center
Sat 08:24:34 PM 39.1922 -105.1153 81° East 333 383 13,700 -1,366 Descending Denver Center
Sat 08:25:35 PM 39.1839 -105.0083 96° East 304 350 12,500 -1,024 Descending Denver Center
Sat 08:26:37 PM 39.1836 -104.9061 90° East 292 336 11,600 -927 Descending Denver Center
Sat 08:27:38 PM 39.2267 -104.8403 50° Northeast 237 273 10,600 -1,317 Descending Denver Center
Sat 08:28:40 PM 39.2933 -104.8394 North 238 274 8,900 -829 Descending Denver Center
Sat 08:29:41 PM 39.3475 -104.8411 359° North 199 229 8,900 -98 Level Denver Center
Sat 08:30:43 PM 39.3986 -104.8431 358° North 186 214 8,700 -537 Descending Denver Center
Sat 08:31:44 PM 39.4494 -104.8447 359° North 173 199 7,800 -829 Descending Denver Center
Sat 08:32:46 PM 39.4925 -104.8469 358° North 155 178 7,000 -683 Descending Denver Center
Sat 08:33:47 PM 39.5267 -104.8483 358° North 124 143 6,400 -585 Descending Denver Center
Sat 08:34:49 PM 39.5600 -104.8508 357° North 121 139 5,800 -581 Descending Denver Center
Sat 08:36:00 PM 39.5667 -104.8333 North  Level FlightAware Approximate
Sat 08:43:00 PM 39.5701 -104.8493 North  Level Estimated
Sat 08:44:00 PM 39.5701 -104.8493 North  Level Estimated

Login

Don't have an account? Register now (free) for customized features, flight alerts, and more!